createdAt,value
2022-07-26T11:23:24.992Z,101603.84
2022-07-26T11:24:25.457Z,101600.28
2022-07-26T11:25:26.268Z,101600.63
2022-07-26T11:26:29.159Z,101600.41
2022-07-26T11:27:28.429Z,101600.67
2022-07-26T11:28:28.994Z,101601.51
2022-07-26T11:29:35.685Z,101601.38
2022-07-26T11:30:28.469Z,101601.53
2022-07-26T11:31:51.179Z,101601.80
2022-07-26T11:32:28.943Z,101601.70
2022-07-26T11:33:32.818Z,101602.44
2022-07-26T11:34:30.272Z,101602.67
2022-07-26T11:35:30.628Z,101602.25
2022-07-26T11:36:31.921Z,101602.36
2022-07-26T11:37:30.937Z,101602.13
2022-07-26T11:38:31.289Z,101601.52
2022-07-26T11:39:32.574Z,101600.91
2022-07-26T11:40:32.181Z,101600.09
2022-07-26T11:41:34.915Z,101599.51
2022-07-26T11:42:33.226Z,101599.19
2022-07-26T11:43:34.393Z,101598.08
2022-07-26T11:44:34.253Z,101597.02
2022-07-26T11:45:34.380Z,101596.52
2022-07-26T11:46:24.730Z,101588.70
2022-07-26T11:47:26.325Z,101579.57
2022-07-26T11:48:26.014Z,101579.45
2022-07-26T11:50:25.792Z,101578.42
2022-07-26T11:51:26.588Z,101578.27
2022-07-26T11:52:28.436Z,101578.12
2022-07-26T11:53:30.336Z,101577.59
2022-07-26T11:54:28.253Z,101577.08
2022-07-26T11:55:29.003Z,101576.89
2022-07-26T11:56:29.897Z,101577.08
2022-07-26T11:57:30.427Z,101577.17
2022-07-26T11:58:30.423Z,101577.00
2022-07-26T11:59:30.743Z,101577.05
2022-07-26T12:00:32.633Z,101577.77
2022-07-26T12:00:46.571Z,101593.48
2022-07-26T12:01:49.711Z,101595.27
2022-07-26T12:02:55.811Z,101594.84
2022-07-26T12:03:47.865Z,101594.69
2022-07-26T12:04:48.217Z,101595.31
2022-07-26T12:05:48.578Z,101595.56
2022-07-26T12:06:49.169Z,101596.13
2022-07-26T12:07:50.377Z,101597.51
2022-07-26T12:08:55.733Z,101598.29
2022-07-26T12:09:49.776Z,101599.17
2022-07-26T12:10:49.943Z,101600.05
2022-07-26T12:11:51.110Z,101600.97
2022-07-26T12:12:50.468Z,101601.92
2022-07-26T12:13:55.902Z,101602.91
2022-07-26T12:14:51.538Z,101603.20
2022-07-26T12:15:53.088Z,101603.03
2022-07-26T12:16:51.985Z,101603.20
2022-07-26T12:17:52.644Z,101603.87
2022-07-26T12:18:53.019Z,101604.22
2022-07-26T12:19:53.569Z,101603.97
2022-07-26T12:20:57.354Z,101604.48
2022-07-26T12:21:54.746Z,101604.69
2022-07-26T12:22:55.258Z,101605.95
2022-07-26T12:23:55.600Z,101605.96
2022-07-26T12:24:12.160Z,101605.73
2022-07-26T12:25:18.394Z,101610.42
2022-07-26T12:26:12.424Z,101610.04
2022-07-26T12:27:13.594Z,101609.86
2022-07-26T12:28:14.109Z,101609.09
2022-07-26T12:29:13.790Z,101608.66
2022-07-26T12:30:14.834Z,101607.81
2022-07-26T12:31:14.160Z,101606.56
2022-07-26T12:32:14.747Z,101605.45
2022-07-26T12:33:14.762Z,101604.40
2022-07-26T12:34:16.230Z,101602.97
2022-07-26T12:35:15.738Z,101602.02
2022-07-26T12:36:16.322Z,101601.59
2022-07-26T12:37:16.631Z,101600.63
2022-07-26T12:38:17.232Z,101599.56
2022-07-26T12:39:17.475Z,101598.69
2022-07-26T12:40:19.040Z,101598.20
2022-07-26T12:41:18.232Z,101598.08
2022-07-26T12:42:21.400Z,101597.30
2022-07-26T12:43:19.302Z,101596.72
2022-07-26T12:44:19.602Z,101596.64
2022-07-26T12:45:21.162Z,101596.06
2022-07-26T12:46:22.079Z,101595.03
2022-07-26T12:47:21.320Z,101594.25
2022-07-26T12:48:21.540Z,101593.92
2022-07-26T12:49:22.845Z,101593.58
2022-07-26T12:50:22.771Z,101592.88
2022-07-26T12:50:31.045Z,101591.55
2022-07-26T12:51:31.467Z,101581.09
2022-07-26T12:52:31.700Z,101581.39
2022-07-26T12:53:33.309Z,101580.89
2022-07-26T12:54:32.969Z,101581.31
2022-07-26T12:55:33.699Z,101581.39
2022-07-26T12:56:34.133Z,101581.71
2022-07-26T12:57:36.858Z,101581.58
2022-07-26T12:58:34.833Z,101581.88
2022-07-26T12:59:36.233Z,101581.56
2022-07-26T13:00:36.108Z,101581.12
2022-07-26T13:01:37.117Z,101580.70
2022-07-26T13:02:37.456Z,101580.54
2022-07-26T13:03:38.849Z,101579.66
2022-07-26T13:04:38.276Z,101579.09
2022-07-26T13:05:38.428Z,101578.34
2022-07-26T13:06:39.944Z,101577.23
2022-07-26T13:07:39.469Z,101576.86
2022-07-26T13:08:40.650Z,101576.38
2022-07-26T13:09:41.068Z,101575.97
2022-07-26T13:10:41.765Z,101575.54
2022-07-26T13:11:42.487Z,101574.94
2022-07-26T13:12:42.757Z,101574.52
2022-07-26T13:13:43.037Z,101573.75
2022-07-26T13:14:43.272Z,101573.86
2022-07-26T13:14:52.413Z,101570.61
2022-07-26T13:15:52.669Z,101565.69
2022-07-26T13:16:52.841Z,101565.00
2022-07-26T13:17:53.000Z,101564.72
2022-07-26T13:18:53.265Z,101564.56
2022-07-26T13:19:54.585Z,101564.22
2022-07-26T13:20:54.742Z,101563.67
2022-07-26T13:21:54.603Z,101563.08
2022-07-26T13:22:55.210Z,101562.24
2022-07-26T13:23:55.324Z,101561.34
2022-07-26T13:24:55.900Z,101561.16
2022-07-26T13:25:56.278Z,101560.25
2022-07-26T13:26:56.623Z,101559.70
2022-07-26T13:27:56.838Z,101559.20
2022-07-26T13:28:58.152Z,101558.87
2022-07-26T13:29:58.910Z,101559.18
2022-07-26T13:30:58.414Z,101558.52
2022-07-26T13:31:58.645Z,101558.18
2022-07-26T13:32:59.919Z,101558.35
2022-07-26T13:33:59.345Z,101558.53
2022-07-26T13:35:00.392Z,101558.18
2022-07-26T13:36:00.652Z,101557.53
2022-07-26T13:37:00.925Z,101556.42
2022-07-26T13:38:00.139Z,101555.83
2022-07-26T13:39:00.547Z,101554.58
2022-07-26T13:40:01.021Z,101554.34
2022-07-26T13:40:09.563Z,101546.27
2022-07-26T13:41:09.547Z,101547.10
2022-07-26T13:42:09.672Z,101546.76
2022-07-26T13:43:11.382Z,101546.39
2022-07-26T13:44:11.986Z,101546.67
2022-07-26T13:45:11.420Z,101545.95
2022-07-26T13:46:12.142Z,101545.37
2022-07-26T13:47:13.033Z,101544.45
2022-07-26T13:48:13.435Z,101544.36
2022-07-26T13:49:14.048Z,101542.78
2022-07-26T13:50:14.313Z,101542.44
2022-07-26T13:51:15.991Z,101541.66
2022-07-26T13:52:17.028Z,101540.93
2022-07-26T13:53:16.087Z,101540.80
2022-07-26T13:54:17.928Z,101540.41
2022-07-26T13:55:16.829Z,101540.18
2022-07-26T13:56:18.641Z,101540.08
2022-07-26T13:57:19.126Z,101539.35
2022-07-26T13:58:19.337Z,101539.41
2022-07-26T13:59:19.411Z,101539.73
2022-07-26T14:00:18.733Z,101540.41
2022-07-26T14:01:19.487Z,101541.45
2022-07-26T14:02:19.561Z,101542.50
2022-07-26T14:03:19.722Z,101544.38
2022-07-26T14:04:20.229Z,101545.19
2022-07-26T14:05:20.682Z,101546.47
2022-07-26T14:06:21.325Z,101548.52
2022-07-26T14:06:51.444Z,101578.67
2022-07-26T14:07:51.655Z,101571.31
2022-07-26T14:08:51.836Z,101571.63
2022-07-26T14:09:52.526Z,101571.50
2022-07-26T14:10:52.801Z,101572.56
2022-07-26T14:11:54.549Z,101573.23
2022-07-26T14:12:54.989Z,101574.02
2022-07-26T14:13:54.463Z,101574.03
2022-07-26T14:14:54.785Z,101574.16
2022-07-26T14:15:54.869Z,101574.42
2022-07-26T14:16:55.226Z,101574.47
2022-07-26T14:17:58.768Z,101574.21
2022-07-26T14:18:56.365Z,101573.95
2022-07-26T14:19:57.560Z,101574.33
2022-07-26T14:20:56.795Z,101575.30
2022-07-26T14:22:00.126Z,101574.77
2022-07-26T14:22:07.553Z,101583.83
2022-07-26T14:23:07.944Z,101583.95
2022-07-26T14:24:08.727Z,101583.02
2022-07-26T14:25:08.389Z,101582.74
2022-07-26T14:26:09.016Z,101582.67
2022-07-26T14:27:10.274Z,101582.53
2022-07-26T14:28:09.401Z,101582.44
2022-07-26T14:29:09.892Z,101582.48
2022-07-26T14:30:11.168Z,101581.95
2022-07-26T14:31:10.737Z,101581.80
2022-07-26T14:32:11.294Z,101581.08
2022-07-26T14:33:11.465Z,101580.39
2022-07-26T14:34:15.318Z,101579.84
2022-07-26T14:35:13.061Z,101579.06
2022-07-26T14:36:13.265Z,101578.64
2022-07-26T14:37:43.204Z,101578.55
2022-07-26T14:38:25.509Z,101578.53
2022-07-26T14:39:14.874Z,101578.81
2022-07-26T14:40:16.254Z,101578.89
2022-07-26T14:41:15.538Z,101578.34
2022-07-26T14:42:16.975Z,101578.42
2022-07-26T14:43:17.197Z,101578.02
2022-07-26T14:44:17.530Z,101577.58
2022-07-26T14:44:26.214Z,100554.02
2022-07-26T14:45:26.364Z,101572.52
2022-07-26T14:46:35.055Z,101572.59
2022-07-26T14:47:27.649Z,101572.77
2022-07-26T14:48:52.849Z,101572.84
2022-07-26T14:49:28.247Z,101573.36
2022-07-26T14:50:42.425Z,101573.63
2022-07-26T14:51:29.293Z,101574.15
2022-07-26T14:52:30.000Z,101574.42
2022-07-26T14:53:30.190Z,101574.73
2022-07-26T14:54:31.670Z,101574.92
2022-07-26T14:55:32.030Z,101575.26
2022-07-26T14:56:32.294Z,101575.28
2022-07-26T14:57:31.650Z,101574.66
2022-07-26T14:58:32.802Z,101574.51
2022-07-26T14:59:33.028Z,101574.39
2022-07-26T15:00:33.848Z,101574.84
2022-07-26T15:01:33.435Z,101574.48
2022-07-26T15:02:34.098Z,101574.22
2022-07-26T15:03:34.196Z,101573.94
2022-07-26T15:04:35.656Z,101574.78
2022-07-26T15:05:36.577Z,101574.73
2022-07-26T15:06:35.957Z,101575.14
2022-07-26T15:07:36.041Z,101574.95
2022-07-26T15:07:45.136Z,101572.09
2022-07-26T15:08:45.504Z,101567.16
2022-07-26T15:09:45.724Z,101567.32
2022-07-26T15:10:46.749Z,101567.62
2022-07-26T15:11:46.711Z,101567.20
2022-07-26T15:12:47.101Z,101567.03
2022-07-26T15:13:47.297Z,101566.16
2022-07-26T15:14:48.732Z,101566.33
2022-07-26T15:15:50.123Z,101566.19
2022-07-26T15:16:49.002Z,101566.24
2022-07-26T15:17:50.019Z,101566.37
2022-07-26T15:18:50.262Z,101566.43
2022-07-26T15:19:49.844Z,101566.14
2022-07-26T15:20:50.346Z,101566.41
2022-07-26T15:21:51.540Z,101565.92
2022-07-26T15:22:51.335Z,101565.63
2022-07-26T15:23:53.325Z,101564.94
2022-07-26T15:24:52.579Z,101564.95
2022-07-26T15:25:54.549Z,101564.42
2022-07-26T15:26:54.283Z,101563.99
2022-07-26T15:27:55.480Z,101563.70
2022-07-26T15:28:55.935Z,101562.97
2022-07-26T15:30:02.808Z,101563.09
2022-07-26T15:30:11.633Z,101556.03
2022-07-26T15:31:08.310Z,101558.27
2022-07-26T15:32:08.727Z,101557.92
2022-07-26T15:33:09.197Z,101557.89
2022-07-26T15:34:10.069Z,101558.24
2022-07-26T15:35:14.631Z,101558.17
2022-07-26T15:36:09.956Z,101558.05
2022-07-26T15:37:10.174Z,101557.64
2022-07-26T15:38:10.651Z,101557.73
2022-07-26T15:39:18.611Z,101557.17
2022-07-26T15:40:11.500Z,101556.24
2022-07-26T15:41:12.056Z,101555.97
2022-07-26T15:42:15.192Z,101555.66
2022-07-26T15:43:12.930Z,101555.49
2022-07-26T15:44:15.060Z,101555.39
2022-07-26T15:45:14.834Z,101554.95
2022-07-26T15:46:15.910Z,101554.79
2022-07-26T15:47:43.479Z,101554.56
2022-07-26T15:48:22.163Z,101554.13
2022-07-26T15:49:16.997Z,101553.36
2022-07-26T15:50:17.230Z,101552.92
2022-07-26T15:51:19.186Z,101552.25
2022-07-26T15:52:18.284Z,101552.00
2022-07-26T15:53:18.787Z,101551.18
2022-07-26T15:54:20.397Z,101550.34
2022-07-26T15:55:21.062Z,101550.34
2022-07-26T15:56:20.397Z,101550.02
2022-07-26T15:57:21.195Z,101549.17
2022-07-26T15:57:36.838Z,101544.88
2022-07-26T15:58:35.885Z,101543.56
2022-07-26T15:59:36.620Z,101543.14
2022-07-26T16:00:38.013Z,101543.06
2022-07-26T16:01:37.441Z,101542.85
2022-07-26T16:02:38.021Z,101543.13
2022-07-26T16:03:39.302Z,101543.22
2022-07-26T16:04:39.036Z,101543.50
2022-07-26T16:05:39.427Z,101543.91
2022-07-26T16:06:39.657Z,101544.44
2022-07-26T16:07:40.110Z,101544.44
2022-07-26T16:08:58.869Z,101544.60
2022-07-26T16:09:41.087Z,101545.39
2022-07-26T16:10:42.238Z,101545.80
2022-07-26T16:11:42.563Z,101546.13
2022-07-26T16:12:43.912Z,101546.16
2022-07-26T16:13:42.436Z,101545.59
2022-07-26T16:14:42.566Z,101545.18
2022-07-26T16:15:43.015Z,101545.42
2022-07-26T16:16:47.681Z,101544.91
2022-07-26T16:17:44.030Z,101544.31
2022-07-26T16:18:44.355Z,101544.66
2022-07-26T16:19:46.283Z,101544.41
2022-07-26T16:20:45.238Z,101544.64
2022-07-26T16:20:55.517Z,101543.35
2022-07-26T16:21:56.157Z,101538.09
2022-07-26T16:22:57.075Z,101537.97
2022-07-26T16:23:59.836Z,101538.17
2022-07-26T16:24:57.878Z,101538.33
2022-07-26T16:25:58.269Z,101538.73
2022-07-26T16:26:59.925Z,101538.66
2022-07-26T16:27:59.086Z,101538.86
2022-07-26T16:29:00.557Z,101538.67
2022-07-26T16:30:00.376Z,101539.08
2022-07-26T16:31:01.119Z,101538.91
2022-07-26T16:32:02.768Z,101539.07
2022-07-26T16:33:02.529Z,101538.89
2022-07-26T16:34:02.683Z,101539.14
2022-07-26T16:35:03.802Z,101538.81
2022-07-26T16:36:06.386Z,101538.61
2022-07-26T16:37:04.105Z,101538.20
2022-07-26T16:38:04.145Z,101538.34
2022-07-26T16:39:04.983Z,101538.59
2022-07-26T16:40:06.921Z,101538.52
2022-07-26T16:41:08.935Z,101538.25
2022-07-26T16:42:07.244Z,101538.22
2022-07-26T16:42:16.600Z,101546.27
2022-07-26T16:43:16.732Z,101533.07
2022-07-26T16:44:15.910Z,101533.00
2022-07-26T16:45:17.470Z,101533.52
2022-07-26T16:46:16.809Z,101533.27
2022-07-26T16:47:18.136Z,101533.33
2022-07-26T16:48:18.035Z,101533.70
2022-07-26T16:49:19.196Z,101533.75
2022-07-26T16:50:27.061Z,101533.78
2022-07-26T16:51:18.888Z,101534.30
2022-07-26T16:52:19.064Z,101533.91
2022-07-26T16:53:19.308Z,101533.84
2022-07-26T16:54:19.758Z,101534.28
2022-07-26T16:55:20.293Z,101534.00
2022-07-26T16:56:20.457Z,101533.84
2022-07-26T16:57:21.644Z,101534.15
2022-07-26T16:58:20.870Z,101534.50
2022-07-26T16:59:22.226Z,101534.32
2022-07-26T17:00:21.449Z,101534.36
2022-07-26T17:01:21.821Z,101534.44
2022-07-26T17:02:22.012Z,101534.52
2022-07-26T17:03:22.987Z,101534.87
2022-07-26T17:04:22.754Z,101534.94
2022-07-26T17:04:49.652Z,101545.95
2022-07-26T17:05:46.448Z,101545.74
2022-07-26T17:07:07.834Z,101545.57
2022-07-26T17:07:47.296Z,101545.44
2022-07-26T17:08:48.909Z,101545.34
2022-07-26T17:09:48.470Z,101545.59
2022-07-26T17:10:48.960Z,101545.41
2022-07-26T17:11:49.225Z,101545.93
2022-07-26T17:12:50.866Z,101546.03
2022-07-26T17:13:50.236Z,101546.60
2022-07-26T17:14:50.653Z,101546.80
2022-07-26T17:15:50.956Z,101546.90
2022-07-26T17:16:52.388Z,101547.72
2022-07-26T17:17:51.651Z,101547.88
2022-07-26T17:18:52.899Z,101548.50
2022-07-26T17:19:52.761Z,101549.09
2022-07-26T17:20:53.882Z,101549.33
2022-07-26T17:21:52.963Z,101549.73
2022-07-26T17:22:54.234Z,101550.33
2022-07-26T17:23:54.709Z,101551.29
2022-07-26T17:24:55.844Z,101551.36
2022-07-26T17:25:04.588Z,101570.99
2022-07-26T17:26:04.931Z,101564.11
2022-07-26T17:27:05.598Z,101564.46
2022-07-26T17:28:06.701Z,101564.63
2022-07-26T17:29:07.474Z,101565.32
2022-07-26T17:30:07.516Z,101566.58
2022-07-26T17:31:07.463Z,101567.08
2022-07-26T17:32:08.723Z,101567.51
2022-07-26T17:33:09.196Z,101568.09
2022-07-26T17:34:08.370Z,101568.96
2022-07-26T17:35:09.672Z,101569.83
2022-07-26T17:36:09.406Z,101570.66
2022-07-26T17:37:11.075Z,101571.23
2022-07-26T17:38:09.714Z,101571.81
2022-07-26T17:39:10.583Z,101572.49
2022-07-26T17:40:10.870Z,101573.52
2022-07-26T17:41:17.408Z,101574.71
2022-07-26T17:42:11.951Z,101575.80
2022-07-26T17:43:12.271Z,101576.89
2022-07-26T17:44:13.367Z,101577.38
2022-07-26T17:45:12.530Z,101577.78
2022-07-26T17:46:12.755Z,101578.52
2022-07-26T17:46:27.810Z,101589.00
2022-07-26T17:47:30.569Z,101586.83
2022-07-26T17:48:29.187Z,101586.88
2022-07-26T17:49:29.185Z,101587.73
2022-07-26T17:50:38.369Z,101588.28
2022-07-26T17:51:30.425Z,101588.88
2022-07-26T17:52:31.903Z,101589.47
2022-07-26T17:53:34.376Z,101589.87
2022-07-26T17:54:31.489Z,101590.12
2022-07-26T17:55:32.388Z,101590.95
2022-07-26T17:56:33.020Z,101592.23
2022-07-26T17:57:34.377Z,101593.00
2022-07-26T17:58:34.105Z,101593.35
2022-07-26T17:59:35.166Z,101593.84
2022-07-26T18:00:34.432Z,101594.44
2022-07-26T18:01:34.681Z,101595.36
2022-07-26T18:02:34.945Z,101596.06
2022-07-26T18:03:36.532Z,101597.38
2022-07-26T18:04:35.574Z,101597.66
2022-07-26T18:05:40.858Z,101597.94
2022-07-26T18:06:39.623Z,101598.61
2022-07-26T18:07:44.186Z,101598.78
2022-07-26T18:08:37.987Z,101599.63
2022-07-26T18:09:38.602Z,101600.73
2022-07-26T18:10:40.075Z,101601.06
2022-07-26T18:11:40.702Z,101601.21
2022-07-26T18:12:39.949Z,101601.62
2022-07-26T18:13:41.858Z,101601.44
2022-07-26T18:13:51.171Z,101607.67
2022-07-26T18:14:51.891Z,101608.24
2022-07-26T18:15:53.624Z,101607.61
2022-07-26T18:16:53.985Z,101606.77
2022-07-26T18:17:53.597Z,101606.66
2022-07-26T18:18:54.724Z,101606.09
2022-07-26T18:19:53.974Z,101605.38
2022-07-26T18:20:54.041Z,101605.51
2022-07-26T18:21:54.299Z,101605.36
2022-07-26T18:22:54.827Z,101605.11
2022-07-26T18:24:15.744Z,101605.11
2022-07-26T18:24:55.947Z,101604.99
2022-07-26T18:25:56.378Z,101604.75
2022-07-26T18:26:57.306Z,101605.27
2022-07-26T18:27:57.543Z,101605.61
2022-07-26T18:28:58.611Z,101606.18
2022-07-26T18:29:58.279Z,101606.20
2022-07-26T18:31:05.480Z,101606.33
2022-07-26T18:32:00.074Z,101606.42
2022-07-26T18:33:00.387Z,101606.52
2022-07-26T18:34:06.373Z,101606.70
2022-07-26T18:35:01.641Z,101607.21
2022-07-26T18:35:10.351Z,101615.16
2022-07-26T18:36:10.401Z,101614.62
2022-07-26T18:37:10.790Z,101614.55
2022-07-26T18:38:12.560Z,101614.82
2022-07-26T18:39:12.973Z,101614.88
2022-07-26T18:40:11.967Z,101614.76
2022-07-26T18:41:12.266Z,101614.61
2022-07-26T18:42:13.156Z,101613.97
2022-07-26T18:43:13.945Z,101613.90
2022-07-26T18:44:14.415Z,101613.70
2022-07-26T18:45:14.761Z,101613.48
2022-07-26T18:46:23.624Z,101613.45
2022-07-26T18:47:15.676Z,101613.49
2022-07-26T18:48:17.125Z,101614.08
2022-07-26T18:49:20.146Z,101614.09
2022-07-26T18:50:17.369Z,101614.73
2022-07-26T18:51:17.601Z,101614.47
2022-07-26T18:52:28.345Z,101615.20
2022-07-26T18:53:18.495Z,101616.22
2022-07-26T18:54:19.334Z,101616.96
2022-07-26T18:55:19.397Z,101618.05
2022-07-26T18:56:20.854Z,101618.80
2022-07-26T18:57:20.772Z,101619.38
2022-07-26T18:58:21.736Z,101619.63
2022-07-26T18:59:22.170Z,101620.86
2022-07-26T19:00:23.653Z,101621.83
2022-07-26T19:00:34.776Z,101628.08
2022-07-26T19:01:35.456Z,101631.39
2022-07-26T19:02:36.220Z,101631.31
2022-07-26T19:03:36.852Z,101631.02
2022-07-26T19:04:37.718Z,101630.95
2022-07-26T19:05:38.214Z,101630.34
2022-07-26T19:06:38.268Z,101630.23
2022-07-26T19:07:38.578Z,101629.87
2022-07-26T19:08:40.047Z,101629.67
2022-07-26T19:09:39.856Z,101629.75
2022-07-26T19:10:40.691Z,101630.06
2022-07-26T19:11:42.623Z,101630.31
2022-07-26T19:12:42.371Z,101630.55
2022-07-26T19:13:43.944Z,101630.88
2022-07-26T19:14:44.788Z,101631.03
2022-07-26T19:15:44.223Z,101630.63
2022-07-26T19:16:45.002Z,101630.95
2022-07-26T19:17:45.458Z,101631.49
2022-07-26T19:18:50.039Z,101632.00
2022-07-26T19:19:46.198Z,101632.15
2022-07-26T19:20:05.934Z,101641.23
2022-07-26T19:21:01.503Z,101644.27
2022-07-26T19:22:02.284Z,101643.93
2022-07-26T19:23:04.004Z,101643.85
2022-07-26T19:24:03.794Z,101644.59
2022-07-26T19:25:04.064Z,101645.12
2022-07-26T19:26:04.974Z,101645.70
2022-07-26T19:27:06.512Z,101646.02
2022-07-26T19:28:06.206Z,101647.14
2022-07-26T19:29:06.376Z,101648.36
2022-07-26T19:30:06.751Z,101649.27
2022-07-26T19:31:08.761Z,101650.70
2022-07-26T19:32:11.273Z,101652.02
2022-07-26T19:33:08.989Z,101653.44
2022-07-26T19:34:09.972Z,101654.46
2022-07-26T19:35:10.015Z,101656.25
2022-07-26T19:36:10.682Z,101657.32
2022-07-26T19:37:11.420Z,101658.84
2022-07-26T19:38:12.758Z,101660.53
2022-07-26T19:39:12.340Z,101661.46
2022-07-26T19:40:14.395Z,101662.81
2022-07-26T19:41:15.900Z,101663.22
2022-07-26T19:41:29.267Z,101680.87
2022-07-26T19:42:29.825Z,101678.42
2022-07-26T19:43:31.464Z,101677.91
2022-07-26T19:44:30.667Z,101678.19
2022-07-26T19:45:31.368Z,101678.27
2022-07-26T19:46:31.494Z,101678.86
2022-07-26T19:47:31.522Z,101679.20
2022-07-26T19:48:31.760Z,101679.98
2022-07-26T19:49:32.254Z,101680.77
2022-07-26T19:50:33.140Z,101681.45
2022-07-26T19:51:33.421Z,101682.09
2022-07-26T19:52:33.941Z,101682.66
2022-07-26T19:53:34.163Z,101683.34
2022-07-26T19:54:35.661Z,101683.69
2022-07-26T19:55:34.794Z,101684.27
2022-07-26T19:56:36.195Z,101685.59
2022-07-26T19:57:35.189Z,101686.63
2022-07-26T19:58:36.224Z,101687.45
2022-07-26T19:59:36.156Z,101688.73
2022-07-26T20:00:36.617Z,101689.52
2022-07-26T20:01:08.963Z,101705.59
2022-07-26T20:01:58.335Z,101699.55
2022-07-26T20:02:49.386Z,101699.89
2022-07-26T20:03:50.006Z,101700.36
2022-07-26T20:04:50.725Z,101700.89
2022-07-26T20:05:51.126Z,101701.33
2022-07-26T20:06:51.756Z,101701.67
2022-07-26T20:07:53.120Z,101702.53
2022-07-26T20:08:53.621Z,101702.83
2022-07-26T20:09:52.696Z,101703.52
2022-07-26T20:10:52.885Z,101704.20
2022-07-26T20:12:01.322Z,101704.20
2022-07-26T20:12:54.479Z,101704.72
2022-07-26T20:13:56.430Z,101705.23
2022-07-26T20:15:46.655Z,101705.67
2022-07-26T20:16:43.854Z,101706.28
2022-07-26T20:17:47.112Z,101707.23
2022-07-26T20:18:50.068Z,101707.61
2022-07-26T20:19:45.404Z,101708.19
2022-07-26T20:21:06.451Z,101714.41
2022-07-26T20:22:06.718Z,101713.05
2022-07-26T20:23:07.031Z,101712.63
2022-07-26T20:24:07.913Z,101712.80
2022-07-26T20:25:14.085Z,101712.54
2022-07-26T20:26:08.993Z,101712.54
2022-07-26T20:27:09.889Z,101712.88
2022-07-26T20:28:18.168Z,101713.22
2022-07-26T20:29:14.565Z,101713.32
2022-07-26T20:30:11.589Z,101713.74
2022-07-26T20:31:30.017Z,101713.98
2022-07-26T20:32:12.789Z,101714.23
2022-07-26T20:33:13.082Z,101713.94
2022-07-26T20:34:14.663Z,101713.84
2022-07-26T20:35:14.696Z,101713.67
2022-07-26T20:36:15.579Z,101714.02
2022-07-26T20:37:15.582Z,101713.72
2022-07-26T20:38:18.297Z,101713.55
2022-07-26T20:39:20.393Z,101713.47
2022-07-26T20:40:26.478Z,101713.40
2022-07-26T20:42:14.888Z,101714.34
2022-07-26T20:43:31.893Z,101727.36
2022-07-26T20:44:31.794Z,101723.22
2022-07-26T20:45:32.112Z,101722.95
2022-07-26T20:46:33.758Z,101722.61
2022-07-26T20:47:48.996Z,101722.78
2022-07-26T20:48:34.328Z,101723.52
2022-07-26T20:49:40.078Z,101723.98
2022-07-26T20:50:33.237Z,101724.25
2022-07-26T20:51:34.189Z,101724.53
2022-07-26T20:52:35.485Z,101724.55
2022-07-26T20:53:34.430Z,101725.23
2022-07-26T20:54:34.786Z,101725.70
2022-07-26T20:55:42.653Z,101725.70
2022-07-26T20:56:36.272Z,101725.98
2022-07-26T20:57:36.731Z,101726.00
2022-07-26T20:58:36.862Z,101726.16
2022-07-26T20:59:39.592Z,101726.76
2022-07-26T21:00:37.914Z,101726.77
2022-07-26T21:01:38.871Z,101727.02
2022-07-26T21:02:39.740Z,101726.78
2022-07-26T21:03:40.232Z,101727.11
2022-07-26T21:04:40.487Z,101727.36
2022-07-26T21:05:43.925Z,101727.54
2022-07-26T21:06:41.377Z,101728.28
2022-07-26T21:07:53.924Z,101728.58
2022-07-26T21:08:42.346Z,101729.68
2022-07-26T21:09:46.776Z,101730.10
2022-07-26T21:10:43.761Z,101730.66
2022-07-26T21:11:44.325Z,101730.39
2022-07-26T21:12:44.872Z,101731.39
2022-07-26T21:13:44.903Z,101731.78
2022-07-26T21:15:09.196Z,101740.03
2022-07-26T21:16:09.803Z,101737.82
2022-07-26T21:17:12.204Z,101737.41
2022-07-26T21:18:09.903Z,101737.82
2022-07-26T21:19:10.480Z,101738.21
2022-07-26T21:20:10.495Z,101738.30
2022-07-26T21:21:11.479Z,101738.56
2022-07-26T21:22:11.940Z,101739.33
2022-07-26T21:23:17.816Z,101739.55
2022-07-26T21:24:21.765Z,101739.56
2022-07-26T21:25:13.378Z,101740.00
2022-07-26T21:26:13.499Z,101739.44
2022-07-26T21:27:14.027Z,101739.11
2022-07-26T21:28:22.481Z,101738.69
2022-07-26T21:29:18.715Z,101738.23
2022-07-26T21:30:16.056Z,101737.85
2022-07-26T21:31:19.653Z,101737.14
2022-07-26T21:32:19.463Z,101736.91
2022-07-26T21:33:25.130Z,101737.30
2022-07-26T21:34:18.030Z,101737.19
2022-07-26T21:35:18.764Z,101737.63
2022-07-26T21:36:19.980Z,101737.79
2022-07-26T21:37:20.044Z,101738.50
2022-07-26T21:38:28.397Z,101738.63
2022-07-26T21:39:20.956Z,101738.75
2022-07-26T21:40:20.958Z,101738.80
2022-07-26T21:40:35.643Z,101741.74
2022-07-26T21:41:42.988Z,101747.47
2022-07-26T21:42:35.635Z,101747.29
2022-07-26T21:43:36.175Z,101746.73
2022-07-26T21:44:38.689Z,101746.48
2022-07-26T21:45:36.831Z,101746.23
2022-07-26T21:47:22.734Z,101746.41
2022-07-26T21:47:38.000Z,101745.81
2022-07-26T21:48:40.740Z,101746.06
2022-07-26T21:49:38.587Z,101745.89
2022-07-26T21:50:41.207Z,101745.97
2022-07-26T21:51:42.190Z,101745.87
2022-07-26T21:52:47.851Z,101745.70
2022-07-26T21:53:40.476Z,101745.75
2022-07-26T21:54:50.282Z,101745.66
2022-07-26T21:55:43.915Z,101746.08
2022-07-26T21:56:41.847Z,101746.42
2022-07-26T21:57:47.557Z,101746.00
2022-07-26T21:58:42.282Z,101746.05
2022-07-26T21:59:43.323Z,101746.31
2022-07-26T22:00:43.421Z,101746.33
2022-07-26T22:01:43.957Z,101746.72
2022-07-26T22:02:44.584Z,101747.66
2022-07-26T22:03:46.146Z,101747.92
2022-07-26T22:04:47.845Z,101748.56
2022-07-26T22:05:45.586Z,101749.42
2022-07-26T22:06:46.300Z,101749.98
2022-07-26T22:07:00.359Z,101758.98
2022-07-26T22:07:57.762Z,101759.50
2022-07-26T22:09:00.124Z,101758.81
2022-07-26T22:09:58.813Z,101758.97
2022-07-26T22:10:59.015Z,101758.87
2022-07-26T22:11:59.631Z,101759.39
2022-07-26T22:12:59.830Z,101759.44
2022-07-26T22:14:00.492Z,101759.69
2022-07-26T22:15:02.631Z,101759.94
2022-07-26T22:16:03.059Z,101760.23
2022-07-26T22:17:01.617Z,101760.52
2022-07-26T22:18:03.239Z,101760.80
2022-07-26T22:19:03.012Z,101760.81
2022-07-26T22:20:03.555Z,101761.14
2022-07-26T22:21:03.949Z,101761.75
2022-07-26T22:22:04.808Z,101762.50
2022-07-26T22:23:05.517Z,101763.11
2022-07-26T22:24:05.693Z,101763.61
2022-07-26T22:25:06.076Z,101764.22
2022-07-26T22:26:06.378Z,101764.63
2022-07-26T22:27:07.154Z,101764.81
2022-07-26T22:28:07.650Z,101765.91
2022-07-26T22:29:07.741Z,101766.27
2022-07-26T22:30:07.877Z,101766.42
2022-07-26T22:31:08.695Z,101766.94
2022-07-26T22:32:09.674Z,101767.25
2022-07-26T22:33:10.395Z,101766.80
2022-07-26T22:34:11.050Z,101766.36
2022-07-26T22:35:11.341Z,101766.38
2022-07-26T22:36:11.929Z,101766.63
2022-07-26T22:37:12.837Z,101766.57